Latest Weather Observations for Ocean Reef

IDW60801

Issued at 3:05 am WST Wednesday 23 July 2014 (issued every 30 minutes, with the page automatically refreshed every 10 minutes)

About weather observations | Map of weather stations | Latest weather observations for WA | Other Formats
Station Details ID: 009214 Name: OCEAN REEF Lat: -31.76 Lon: 115.73 Height: 10.0 m
Data from the previous 72 hours. | See also: Recent months for locations in Western Australia
Date/Time
WST
Temp
°C
App
Temp
°C
Dew
Point
Rel
Hum
%
Delta-T
°C
Wind Press
QNH
hPa
Press
MSL
hPa
Rain
since 9 am
mm
Dir
 
Spd
km/h
Gust
km/h
Spd
kts
Gust
kts
23/03:00am - - - - - ESE 13 15 7 8 - - -
23/02:30am - - - - - NE 6 9 3 5 - - -
23/02:00am - - - - - E 9 11 5 6 - - -
23/01:30am - - - - - ESE 9 13 5 7 - - -
23/01:00am - - - - - ESE 17 24 9 13 - - -
23/12:30am - - - - - ESE 9 13 5 7 - - -
23/12:00am - - - - - S 19 26 10 14 - - -
 
Date/Time
WST
Temp
°C
App
Temp
°C
Dew
Point
Rel
Hum
%
Delta-T
°C
Wind Press
QNH
hPa
Press
MSL
hPa
Rain
since 9 am
mm
Dir
 
Spd
km/h
Gust
km/h
Spd
kts
Gust
kts
22/11:30pm - - - - - S 24 37 13 20 - - -
22/11:00pm - - - - - S 28 33 15 18 - - -
22/10:30pm - - - - - SSE 13 30 7 16 - - -
22/10:00pm - - - - - SSW 30 41 16 22 - - -
22/09:30pm - - - - - SSW 26 37 14 20 - - -
22/09:00pm - - - - - SSW 33 41 18 22 - - -
22/08:30pm - - - - - SSW 35 44 19 24 - - -
22/08:00pm - - - - - SSW 32 41 17 22 - - -
22/07:30pm - - - - - SSW 37 46 20 25 - - -
22/07:00pm - - - - - WSW 37 48 20 26 - - -
22/06:30pm - - - - - SW 37 44 20 24 - - -
22/06:00pm - - - - - SSW 32 46 17 25 - - -
22/05:30pm - - - - - SSW 35 43 19 23 - - -
22/05:00pm - - - - - W 28 39 15 21 - - -
22/04:30pm - - - - - SW 39 46 21 25 - - -
22/04:00pm - - - - - SW 46 56 25 30 - - -
22/03:30pm - - - - - SW 30 39 16 21 - - -
22/03:00pm - - - - - WSW 37 48 20 26 - - -
22/02:30pm - - - - - SSW 9 15 5 8 - - -
22/02:00pm - - - - - S 13 19 7 10 - - -
22/01:30pm - - - - - NW 7 7 4 4 - - -
22/01:00pm - - - - - SW 6 7 3 4 - - -
22/12:30pm - - - - - NW 9 11 5 6 - - -
22/12:00pm - - - - - NW 7 9 4 5 - - -
22/11:30am - - - - - NNE 2 6 1 3 - - -
22/11:00am - - - - - NNW 9 11 5 6 - - -
22/10:30am - - - - - NE 7 11 4 6 - - -
22/10:00am - - - - - ENE 7 9 4 5 - - -
22/09:30am - - - - - E 6 7 3 4 - - -
22/09:00am - - - - - ENE 9 13 5 7 - - -
22/08:30am - - - - - ENE 13 17 7 9 - - -
22/08:00am - - - - - ENE 9 13 5 7 - - -
22/07:30am - - - - - E 15 22 8 12 - - -
22/07:00am - - - - - ESE 15 20 8 11 - - -
22/06:30am - - - - - ESE 15 20 8 11 - - -
22/06:00am - - - - - ESE 13 19 7 10 - - -
22/05:30am - - - - - SE 15 26 8 14 - - -
22/05:00am - - - - - S 37 41 20 22 - - -
22/04:30am - - - - - SW 44 56 24 30 - - -
22/04:00am - - - - - SW 50 59 27 32 - - -
22/03:30am - - - - - SW 35 48 19 26 - - -
22/03:00am - - - - - SW 28 35 15 19 - - -
22/02:30am - - - - - SW 30 43 16 23 - - -
22/02:00am - - - - - SW 39 46 21 25 - - -
22/01:30am - - - - - WSW 19 26 10 14 - - -
22/01:00am - - - - - WSW 35 43 19 23 - - -
22/12:30am - - - - - W 28 35 15 19 - - -
22/12:00am - - - - - W 19 24 10 13 - - -
 
Date/Time
WST
Temp
°C
App
Temp
°C
Dew
Point
Rel
Hum
%
Delta-T
°C
Wind Press
QNH
hPa
Press
MSL
hPa
Rain
since 9 am
mm
Dir
 
Spd
km/h
Gust
km/h
Spd
kts
Gust
kts
21/11:30pm - - - - - W 28 35 15 19 - - -
21/11:00pm - - - - - W 15 24 8 13 - - -
21/10:30pm - - - - - W 22 28 12 15 - - -
21/10:00pm - - - - - NNW 7 11 4 6 - - -
21/09:30pm - - - - - N 11 17 6 9 - - -
21/09:00pm - - - - - NNW 20 28 11 15 - - -
21/08:30pm - - - - - W 22 32 12 17 - - -
21/08:00pm - - - - - WSW 33 43 18 23 - - -
21/07:30pm - - - - - W 41 54 22 29 - - -
21/07:00pm - - - - - N 30 37 16 20 - - -
21/06:30pm - - - - - N 15 22 8 12 - - -
21/06:00pm - - - - - N 15 22 8 12 - - -
21/05:30pm - - - - - N 20 30 11 16 - - -
21/05:00pm - - - - - N 24 39 13 21 - - -
21/04:30pm - - - - - NNW 35 43 19 23 - - -
21/04:00pm - - - - - NNW 28 35 15 19 - - -
21/03:30pm - - - - - N 20 30 11 16 - - -
21/03:00pm - - - - - N 22 37 12 20 - - -
21/02:30pm - - - - - N 17 28 9 15 - - -
21/02:00pm - - - - - N 19 30 10 16 - - -
21/01:30pm - - - - - N 26 35 14 19 - - -
21/01:00pm - - - - - N 24 33 13 18 - - -
21/12:30pm - - - - - N 24 32 13 17 - - -
21/12:00pm - - - - - N 24 35 13 19 - - -
21/11:30am - - - - - N 33 46 18 25 - - -
21/11:00am - - - - - N 19 28 10 15 - - -
21/10:30am - - - - - N 13 22 7 12 - - -
21/10:00am - - - - - N 9 15 5 8 - - -
21/09:30am - - - - - N 15 22 8 12 - - -
21/09:00am - - - - - NNE 17 24 9 13 - - -
21/08:30am - - - - - NE 15 20 8 11 - - -
21/08:00am - - - - - NE 11 13 6 7 - - -
21/07:30am - - - - - NNW 13 17 7 9 - - -
21/07:00am - - - - - NW 15 19 8 10 - - -
21/06:30am - - - - - WNW 19 22 10 12 - - -
21/06:00am - - - - - W 22 28 12 15 - - -
21/05:30am - - - - - WNW 26 30 14 16 - - -
21/05:00am - - - - - W 26 30 14 16 - - -
21/04:30am - - - - - WNW 28 32 15 17 - - -
21/04:00am - - - - - W 26 30 14 16 - - -
21/03:30am - - - - - W 28 33 15 18 - - -
21/03:00am - - - - - W 30 35 16 19 - - -
21/02:30am - - - - - WSW 33 39 18 21 - - -
21/02:00am - - - - - WSW 32 37 17 20 - - -
21/01:30am - - - - - WSW 33 37 18 20 - - -
21/01:00am - - - - - WSW 32 37 17 20 - - -
21/12:30am - - - - - SW 11 19 6 10 - - -
21/12:00am - - - - - ENE 9 11 5 6 - - -
 
Date/Time
WST
Temp
°C
App
Temp
°C
Dew
Point
Rel
Hum
%
Delta-T
°C
Wind Press
QNH
hPa
Press
MSL
hPa
Rain
since 9 am
mm
Dir
 
Spd
km/h
Gust
km/h
Spd
kts
Gust
kts
20/11:30pm - - - - - ENE 13 15 7 8 - - -
20/11:00pm - - - - - NE 11 15 6 8 - - -
20/10:30pm - - - - - NNE 13 15 7 8 - - -
20/10:00pm - - - - - NE 11 13 6 7 - - -
20/09:30pm - - - - - ENE 11 13 6 7 - - -
20/09:00pm - - - - - ENE 13 15 7 8 - - -
20/08:30pm - - - - - E 13 13 7 7 - - -
20/08:00pm - - - - - E 11 13 6 7 - - -
20/07:30pm - - - - - ESE 13 15 7 8 - - -
20/07:00pm - - - - - SSE 11 13 6 7 - - -
20/06:30pm - - - - - S 11 15 6 8 - - -
20/06:00pm - - - - - NW 11 13 6 7 - - -
20/05:30pm - - - - - W 7 9 4 5 - - -
20/05:00pm - - - - - WSW 9 11 5 6 - - -
20/04:30pm - - - - - SW 9 11 5 6 - - -
20/04:00pm - - - - - SSW 9 11 5 6 - - -
20/03:30pm - - - - - S 7 9 4 5 - - -
20/03:00pm - - - - - SSW 9 13 5 7 - - -
20/02:30pm - - - - - SSW 11 13 6 7 - - -
20/02:00pm - - - - - SW 11 13 6 7 - - -
20/01:30pm - - - - - SSW 15 19 8 10 - - -
20/01:00pm - - - - - SW 13 17 7 9 - - -
20/12:30pm - - - - - S 17 20 9 11 - - -
20/12:00pm - - - - - SSW 13 20 7 11 - - -
20/11:30am - - - - - E 9 13 5 7 - - -
20/11:00am - - - - - ESE 11 15 6 8 - - -
20/10:30am - - - - - E 13 15 7 8 - - -
20/10:00am - - - - - E 11 15 6 8 - - -
20/09:30am - - - - - ENE 13 17 7 9 - - -
20/09:00am - - - - - ENE 13 17 7 9 - - -
20/08:30am - - - - - ENE 17 19 9 10 - - -
20/08:00am - - - - - NE 15 19 8 10 - - -
20/07:30am - - - - - NE 13 17 7 9 - - -
20/07:00am - - - - - ENE 13 15 7 8 - - -
20/06:30am - - - - - ENE 17 19 9 10 - - -
20/06:00am - - - - - E 11 13 6 7 - - -
20/05:30am - - - - - SE 6 7 3 4 - - -
20/05:00am - - - - - E 7 11 4 6 - - -
20/04:30am - - - - - ENE 9 13 5 7 - - -
20/04:00am - - - - - ENE 13 17 7 9 - - -
20/03:30am - - - - - ENE 17 22 9 12 - - -

Other Formats:

Comma delimited format used in spreadsheet applications
http://www.bom.gov.au/fwo/IDW60801/IDW60801.94607.axf

JavaScript Object Notation format (JSON) in row-major order
http://www.bom.gov.au/fwo/IDW60801/IDW60801.94607.json